createdAt,value
2022-10-18T00:00:25.054Z,14
2022-10-18T00:01:25.042Z,10
2022-10-18T00:02:25.055Z,12
2022-10-18T00:03:25.055Z,14
2022-10-18T00:04:25.056Z,13
2022-10-18T00:05:25.043Z,13
2022-10-18T00:06:25.056Z,13
2022-10-18T00:07:25.057Z,14
2022-10-18T00:08:25.057Z,14
2022-10-18T00:09:25.044Z,15
2022-10-18T00:10:25.083Z,17
2022-10-18T00:11:25.058Z,17
2022-10-18T00:12:25.045Z,16
2022-10-18T00:13:25.045Z,15
2022-10-18T00:14:25.058Z,16
2022-10-18T00:15:25.059Z,18
2022-10-18T00:16:25.046Z,18
2022-10-18T00:17:25.059Z,18
2022-10-18T00:18:25.060Z,16
2022-10-18T00:19:25.060Z,16
2022-10-18T00:20:25.047Z,17
2022-10-18T00:21:25.061Z,19
2022-10-18T00:22:25.061Z,17
2022-10-18T00:23:25.061Z,16
2022-10-18T00:24:25.048Z,16
2022-10-18T00:25:25.062Z,18
2022-10-18T00:26:25.063Z,18
2022-10-18T00:27:25.062Z,18
2022-10-18T00:28:25.050Z,19
2022-10-18T00:29:25.063Z,17
2022-10-18T00:30:25.064Z,18
2022-10-18T00:31:25.050Z,18
2022-10-18T00:32:25.051Z,17
2022-10-18T00:33:25.064Z,16
2022-10-18T00:34:25.065Z,18
2022-10-18T00:35:25.052Z,17
2022-10-18T00:36:25.066Z,17
2022-10-18T00:37:25.065Z,16
2022-10-18T00:38:25.066Z,15
2022-10-18T00:39:25.053Z,16
2022-10-18T00:40:25.066Z,18
2022-10-18T00:41:25.066Z,15
2022-10-18T00:42:25.067Z,15
2022-10-18T00:43:25.054Z,16
2022-10-18T00:44:25.068Z,16
2022-10-18T00:45:25.068Z,17
2022-10-18T00:46:25.068Z,18
2022-10-18T00:47:25.055Z,18
2022-10-18T00:48:25.069Z,16
2022-10-18T00:49:25.069Z,14
2022-10-18T00:50:25.056Z,14
2022-10-18T00:51:25.056Z,12
2022-10-18T00:52:25.070Z,14
2022-10-18T00:53:25.071Z,13
2022-10-18T00:54:25.057Z,14
2022-10-18T00:55:25.071Z,14
2022-10-18T00:56:25.071Z,16
2022-10-18T00:57:25.071Z,17
2022-10-18T00:58:25.058Z,21
2022-10-18T00:59:25.072Z,18
2022-10-18T01:00:25.117Z,19
2022-10-18T01:01:25.072Z,18
2022-10-18T01:02:25.059Z,20
2022-10-18T01:03:25.073Z,18
2022-10-18T01:04:25.074Z,16
2022-10-18T01:05:25.074Z,17
2022-10-18T01:06:25.061Z,18
2022-10-18T01:07:25.074Z,19
2022-10-18T01:08:25.075Z,19
2022-10-18T01:09:25.061Z,17
2022-10-18T01:10:25.062Z,16
2022-10-18T01:11:25.075Z,14
2022-10-18T01:12:25.101Z,14
2022-10-18T01:13:25.063Z,17
2022-10-18T01:14:25.077Z,19
2022-10-18T01:15:25.076Z,16
2022-10-18T01:16:25.077Z,14
2022-10-18T01:17:25.064Z,12
2022-10-18T01:18:25.077Z,11
2022-10-18T01:19:25.078Z,11
2022-10-18T01:20:25.078Z,13
2022-10-18T01:21:25.065Z,12
2022-10-18T01:22:25.078Z,13
2022-10-18T01:23:25.079Z,15
2022-10-18T01:24:25.066Z,14
2022-10-18T01:25:25.066Z,14
2022-10-18T01:26:25.079Z,15
2022-10-18T01:27:25.080Z,14
2022-10-18T01:28:25.067Z,14
2022-10-18T01:29:25.067Z,14
2022-10-18T01:30:25.081Z,15
2022-10-18T01:31:25.081Z,13
2022-10-18T01:32:25.068Z,11
2022-10-18T01:33:25.131Z,11
2022-10-18T01:34:25.082Z,9
2022-10-18T01:35:25.082Z,8
2022-10-18T01:36:25.069Z,9
2022-10-18T01:37:25.083Z,11
2022-10-18T01:38:25.083Z,9
2022-10-18T01:39:25.083Z,8
2022-10-18T01:40:25.070Z,7
2022-10-18T01:41:25.084Z,7
2022-10-18T01:42:25.085Z,8
2022-10-18T01:43:25.084Z,7
2022-10-18T01:44:25.071Z,7
2022-10-18T01:45:25.126Z,8
2022-10-18T01:46:25.086Z,7
2022-10-18T01:47:25.072Z,11
2022-10-18T01:48:25.073Z,12
2022-10-18T01:49:25.086Z,13
2022-10-18T01:50:25.087Z,13
2022-10-18T01:51:25.073Z,11
2022-10-18T01:52:25.087Z,11
2022-10-18T01:53:25.087Z,11
2022-10-18T01:54:25.087Z,13
2022-10-18T01:55:25.075Z,12
2022-10-18T01:56:25.088Z,13
2022-10-18T01:57:25.133Z,14
2022-10-18T01:58:25.089Z,15
2022-10-18T01:59:25.076Z,14
2022-10-18T02:00:25.089Z,17
2022-10-18T02:01:25.090Z,17
2022-10-18T02:02:25.090Z,15
2022-10-18T02:03:25.077Z,17
2022-10-18T02:04:25.090Z,14
2022-10-18T02:05:25.091Z,12
2022-10-18T02:06:25.078Z,13
2022-10-18T02:07:25.078Z,16
2022-10-18T02:08:25.091Z,13
2022-10-18T02:09:25.117Z,17
2022-10-18T02:10:25.079Z,15
2022-10-18T02:11:25.092Z,16
2022-10-18T02:12:25.093Z,15
2022-10-18T02:13:25.093Z,15
2022-10-18T02:14:25.080Z,19
2022-10-18T02:15:25.094Z,17
2022-10-18T02:16:25.094Z,22
2022-10-18T02:17:25.094Z,19
2022-10-18T02:18:25.081Z,21
2022-10-18T02:19:25.095Z,21
2022-10-18T02:20:25.095Z,23
2022-10-18T02:21:25.106Z,22
2022-10-18T02:22:25.082Z,21
2022-10-18T02:23:25.096Z,21
2022-10-18T02:24:25.096Z,21
2022-10-18T02:25:25.083Z,22
2022-10-18T02:26:25.083Z,20
2022-10-18T02:27:25.097Z,23
2022-10-18T02:28:25.098Z,19
2022-10-18T02:29:25.084Z,18
2022-10-18T02:30:25.098Z,22
2022-10-18T02:31:25.098Z,19
2022-10-18T02:32:25.098Z,16
2022-10-18T02:33:25.085Z,18
2022-10-18T02:34:25.099Z,16
2022-10-18T02:35:25.143Z,16
2022-10-18T02:36:25.099Z,14
2022-10-18T02:37:25.087Z,13
2022-10-18T02:38:25.100Z,15
2022-10-18T02:39:25.101Z,13
2022-10-18T02:40:25.100Z,15
2022-10-18T02:41:25.088Z,16
2022-10-18T02:42:25.101Z,15
2022-10-18T02:43:25.102Z,15
2022-10-18T02:44:25.089Z,16
2022-10-18T02:45:25.089Z,22
2022-10-18T02:46:25.102Z,19
2022-10-18T02:47:25.103Z,20
2022-10-18T02:48:25.090Z,20
2022-10-18T02:49:25.103Z,18
2022-10-18T02:50:25.103Z,19
2022-10-18T02:51:25.104Z,19
2022-10-18T02:52:25.091Z,21
2022-10-18T02:53:25.104Z,20
2022-10-18T02:54:25.105Z,20
2022-10-18T02:55:25.105Z,20
2022-10-18T02:56:25.092Z,22
2022-10-18T02:57:25.105Z,20
2022-10-18T02:58:25.106Z,22
2022-10-18T02:59:25.117Z,22
2022-10-18T03:00:25.093Z,22
2022-10-18T03:01:25.107Z,19
2022-10-18T03:02:25.107Z,15
2022-10-18T03:03:25.094Z,14
2022-10-18T03:04:25.094Z,16
2022-10-18T03:05:25.108Z,14
2022-10-18T03:06:25.108Z,13
2022-10-18T03:07:25.095Z,14
2022-10-18T03:08:25.109Z,13
2022-10-18T03:09:25.109Z,15
2022-10-18T03:10:25.109Z,13
2022-10-18T03:11:25.096Z,11
2022-10-18T03:12:25.110Z,12
2022-10-18T03:13:25.111Z,12
2022-10-18T03:14:25.110Z,13
2022-10-18T03:15:25.098Z,16
2022-10-18T03:16:25.111Z,15
2022-10-18T03:17:25.112Z,17
2022-10-18T03:18:25.124Z,22
2022-10-18T03:19:25.099Z,19
2022-10-18T03:20:25.112Z,19
2022-10-18T03:21:25.113Z,18
2022-10-18T03:22:25.100Z,15
2022-10-18T03:23:25.100Z,18
2022-10-18T03:24:25.113Z,18
2022-10-18T03:25:25.114Z,18
2022-10-18T03:26:25.101Z,18
2022-10-18T03:27:25.114Z,17
2022-10-18T03:28:25.114Z,19
2022-10-18T03:29:25.115Z,18
2022-10-18T03:30:25.102Z,22
2022-10-18T03:31:25.115Z,18
2022-10-18T03:32:30.609Z,15
2022-10-18T03:33:25.116Z,21
2022-10-18T03:34:25.103Z,14
2022-10-18T03:35:25.117Z,16
2022-10-18T03:36:25.117Z,16
2022-10-18T03:37:25.117Z,14
2022-10-18T03:38:25.104Z,13
2022-10-18T03:39:25.167Z,20
2022-10-18T03:40:25.119Z,18
2022-10-18T03:41:25.105Z,19
2022-10-18T03:42:25.105Z,23
2022-10-18T03:43:25.119Z,23
2022-10-18T03:44:25.120Z,24
2022-10-18T03:45:25.106Z,24
2022-10-18T03:46:25.120Z,22
2022-10-18T03:47:25.120Z,19
2022-10-18T03:48:25.120Z,20
2022-10-18T03:49:25.107Z,21
2022-10-18T03:50:25.121Z,21
2022-10-18T03:51:25.187Z,21
2022-10-18T03:52:25.122Z,18
2022-10-18T03:53:25.109Z,17
2022-10-18T03:54:25.122Z,16
2022-10-18T03:55:25.123Z,18
2022-10-18T03:56:25.123Z,18
2022-10-18T03:57:25.110Z,19
2022-10-18T03:58:25.123Z,18
2022-10-18T03:59:25.124Z,17
2022-10-18T04:00:25.111Z,20
2022-10-18T04:01:25.111Z,18
2022-10-18T04:02:25.124Z,16
2022-10-18T04:03:25.125Z,19
2022-10-18T04:04:25.112Z,21
2022-10-18T04:05:25.126Z,19
2022-10-18T04:06:25.125Z,19
2022-10-18T04:07:25.126Z,20
2022-10-18T04:08:25.113Z,21
2022-10-18T04:09:25.126Z,18
2022-10-18T04:10:25.127Z,20
2022-10-18T04:11:25.127Z,19
2022-10-18T04:12:25.114Z,19
2022-10-18T04:13:25.128Z,19
2022-10-18T04:14:25.129Z,16
2022-10-18T04:15:25.115Z,19
2022-10-18T04:16:25.115Z,23
2022-10-18T04:17:25.129Z,21
2022-10-18T04:18:25.130Z,17
2022-10-18T04:19:25.116Z,21
2022-10-18T04:20:25.117Z,21
2022-10-18T04:21:25.130Z,24
2022-10-18T04:23:25.117Z,22
2022-10-18T04:24:25.131Z,20
2022-10-18T04:25:25.131Z,23
2022-10-18T04:26:25.132Z,20
2022-10-18T04:27:25.131Z,26
2022-10-18T04:28:25.132Z,23
2022-10-18T04:29:25.133Z,23
2022-10-18T04:30:25.133Z,29
2022-10-18T04:31:25.120Z,27
2022-10-18T04:33:25.134Z,22
2022-10-18T04:34:25.121Z,24
2022-10-18T04:35:25.121Z,26
2022-10-18T04:36:25.134Z,25
2022-10-18T04:37:25.136Z,27
2022-10-18T04:38:25.122Z,28
2022-10-18T04:39:25.185Z,25
2022-10-18T04:40:25.136Z,27
2022-10-18T04:41:25.136Z,23
2022-10-18T04:42:25.123Z,22
2022-10-18T04:43:25.137Z,23
2022-10-18T04:44:25.137Z,25
2022-10-18T04:45:25.137Z,25
2022-10-18T04:46:25.124Z,21
2022-10-18T04:47:25.138Z,21
2022-10-18T04:48:25.139Z,17
2022-10-18T04:49:25.138Z,18
2022-10-18T04:50:25.126Z,19
2022-10-18T04:51:25.139Z,22
2022-10-18T04:52:25.140Z,21
2022-10-18T04:53:25.126Z,24
2022-10-18T04:54:25.127Z,18
2022-10-18T04:55:25.140Z,19
2022-10-18T04:56:25.141Z,20
2022-10-18T04:57:25.128Z,16
2022-10-18T04:58:25.205Z,18
2022-10-18T04:59:25.141Z,16
2022-10-18T05:00:25.142Z,25
2022-10-18T05:01:25.129Z,26
2022-10-18T05:02:25.142Z,28
2022-10-18T05:03:25.143Z,34
2022-10-18T05:04:25.143Z,34
2022-10-18T05:05:25.130Z,29
2022-10-18T05:06:25.143Z,26
2022-10-18T05:07:25.144Z,23
2022-10-18T05:08:25.144Z,22
2022-10-18T05:09:25.131Z,23
2022-10-18T05:10:25.170Z,34
2022-10-18T05:11:25.145Z,28
2022-10-18T05:12:25.132Z,28
2022-10-18T05:13:25.132Z,26
2022-10-18T05:14:25.146Z,26
2022-10-18T05:15:25.147Z,26
2022-10-18T05:16:25.133Z,27
2022-10-18T05:17:25.148Z,25
2022-10-18T05:18:25.147Z,21
2022-10-18T05:19:25.147Z,21
2022-10-18T05:20:25.134Z,25
2022-10-18T05:21:25.148Z,30
2022-10-18T05:22:25.148Z,28
2022-10-18T05:23:25.148Z,26
2022-10-18T05:24:25.136Z,29
2022-10-18T05:25:25.149Z,45
2022-10-18T05:26:25.150Z,39
2022-10-18T05:27:25.150Z,38
2022-10-18T05:28:25.137Z,36
2022-10-18T05:29:25.150Z,33
2022-10-18T05:30:25.152Z,31
2022-10-18T05:31:25.138Z,29
2022-10-18T05:32:25.138Z,23
2022-10-18T05:33:25.151Z,23
2022-10-18T05:34:25.153Z,28
2022-10-18T05:35:25.139Z,22
2022-10-18T05:36:25.153Z,18
2022-10-18T05:37:25.153Z,31
2022-10-18T05:38:25.153Z,31
2022-10-18T05:39:25.140Z,25
2022-10-18T05:40:25.154Z,39
2022-10-18T05:41:25.154Z,33
2022-10-18T05:42:25.154Z,36
2022-10-18T05:43:25.141Z,34
2022-10-18T05:44:25.155Z,27
2022-10-18T05:45:25.156Z,30
2022-10-18T05:46:25.155Z,28
2022-10-18T05:47:25.143Z,33
2022-10-18T05:48:25.156Z,28
2022-10-18T05:49:25.157Z,27
2022-10-18T05:50:25.144Z,31
2022-10-18T05:51:25.144Z,35
2022-10-18T05:52:25.157Z,35
2022-10-18T05:53:25.158Z,41
2022-10-18T05:54:25.145Z,33
2022-10-18T05:55:25.145Z,27
2022-10-18T05:56:25.159Z,29
2022-10-18T05:57:25.223Z,27
2022-10-18T05:58:25.146Z,29
2022-10-18T05:59:25.160Z,30
2022-10-18T06:00:25.160Z,31
2022-10-18T06:01:25.160Z,25
2022-10-18T06:02:25.147Z,24
2022-10-18T06:03:25.161Z,33
2022-10-18T06:04:25.161Z,29
2022-10-18T06:05:25.161Z,26
2022-10-18T06:06:25.148Z,30
2022-10-18T06:07:25.162Z,25
2022-10-18T06:08:25.163Z,34
2022-10-18T06:10:25.150Z,32
2022-10-18T06:11:25.163Z,33
2022-10-18T06:12:25.164Z,34
2022-10-18T06:13:25.151Z,37
2022-10-18T06:14:25.151Z,37
2022-10-18T06:15:25.165Z,38
2022-10-18T06:16:25.229Z,34
2022-10-18T06:17:25.152Z,34
2022-10-18T06:18:25.165Z,32
2022-10-18T06:19:25.166Z,33
2022-10-18T06:20:25.166Z,32
2022-10-18T06:21:25.153Z,34
2022-10-18T06:22:25.167Z,30
2022-10-18T06:23:25.167Z,31
2022-10-18T06:24:25.167Z,31
2022-10-18T06:25:25.154Z,34
2022-10-18T06:26:25.168Z,33
2022-10-18T06:27:25.169Z,35
2022-10-18T06:28:25.168Z,36
2022-10-18T06:29:25.156Z,35
2022-10-18T06:30:25.169Z,38
2022-10-18T06:31:25.170Z,43
2022-10-18T06:32:25.156Z,43
2022-10-18T06:33:25.157Z,46
2022-10-18T06:34:25.170Z,40
2022-10-18T06:35:25.170Z,34
2022-10-18T06:36:25.158Z,34
2022-10-18T06:37:25.171Z,38
2022-10-18T06:38:25.171Z,32
2022-10-18T06:39:25.172Z,32
2022-10-18T06:40:25.172Z,37
2022-10-18T06:41:25.173Z,38
2022-10-18T06:42:25.173Z,33
2022-10-18T06:43:25.173Z,37
2022-10-18T06:44:25.160Z,37
2022-10-18T06:45:25.174Z,36
2022-10-18T06:46:25.174Z,33
2022-10-18T06:47:25.161Z,31
2022-10-18T06:48:25.161Z,31
2022-10-18T06:49:25.175Z,37
2022-10-18T06:50:25.176Z,35
2022-10-18T06:51:25.162Z,34
2022-10-18T06:52:25.240Z,41
2022-10-18T06:53:25.176Z,44
2022-10-18T06:54:25.176Z,43
2022-10-18T06:55:25.164Z,45
2022-10-18T06:56:25.177Z,42
2022-10-18T06:57:25.177Z,46
2022-10-18T06:58:25.178Z,49
2022-10-18T06:59:25.165Z,55
2022-10-18T07:00:25.178Z,53
2022-10-18T07:01:25.179Z,40
2022-10-18T07:02:25.179Z,42
2022-10-18T07:03:25.166Z,50
2022-10-18T07:04:25.180Z,42
2022-10-18T07:05:25.180Z,40
2022-10-18T07:06:25.180Z,39
2022-10-18T07:07:25.167Z,39
2022-10-18T07:08:25.181Z,46
2022-10-18T07:09:25.181Z,53
2022-10-18T07:10:25.168Z,44
2022-10-18T07:11:25.168Z,48
2022-10-18T07:12:25.182Z,49
2022-10-18T07:13:25.246Z,53
2022-10-18T07:14:25.170Z,49
2022-10-18T07:15:25.183Z,50
2022-10-18T07:16:25.183Z,48
2022-10-18T07:17:25.184Z,50
2022-10-18T07:18:25.171Z,49
2022-10-18T07:19:25.185Z,56
2022-10-18T07:20:25.185Z,48
2022-10-18T07:21:25.185Z,52
2022-10-18T07:22:25.173Z,51
2022-10-18T07:23:25.186Z,56
2022-10-18T07:24:25.187Z,53
2022-10-18T07:25:25.201Z,50
2022-10-18T07:26:25.174Z,58
2022-10-18T07:27:25.188Z,56
2022-10-18T07:28:25.189Z,62
2022-10-18T07:29:25.175Z,59
2022-10-18T07:30:25.176Z,64
2022-10-18T07:31:25.190Z,60
2022-10-18T07:32:25.215Z,54
2022-10-18T07:33:25.177Z,57
2022-10-18T07:34:25.191Z,65
2022-10-18T07:35:25.191Z,50
2022-10-18T07:36:25.192Z,48
2022-10-18T07:37:25.179Z,56
2022-10-18T07:38:25.193Z,49
2022-10-18T07:39:25.194Z,44
2022-10-18T07:40:25.194Z,46
2022-10-18T07:41:25.181Z,50
2022-10-18T07:42:25.195Z,47
2022-10-18T07:43:25.196Z,55
2022-10-18T07:44:25.183Z,61
2022-10-18T07:46:25.197Z,54
2022-10-18T07:47:25.198Z,57
2022-10-18T07:48:25.185Z,57
2022-10-18T07:49:25.185Z,57
2022-10-18T07:50:25.199Z,55
2022-10-18T07:51:25.199Z,58
2022-10-18T07:52:25.187Z,71
2022-10-18T07:53:25.200Z,77
2022-10-18T07:54:25.201Z,68
2022-10-18T07:55:25.201Z,62
2022-10-18T07:56:25.189Z,56
2022-10-18T07:57:25.202Z,65
2022-10-18T07:58:25.203Z,63
2022-10-18T07:59:25.203Z,62
2022-10-18T08:00:25.191Z,78
2022-10-18T08:01:25.204Z,65
2022-10-18T08:02:25.205Z,60
2022-10-18T08:03:25.205Z,68
2022-10-18T08:04:25.192Z,67
2022-10-18T08:05:25.256Z,61
2022-10-18T08:06:25.207Z,65
2022-10-18T08:07:25.194Z,65
2022-10-18T08:08:25.194Z,64
2022-10-18T08:09:25.208Z,64
2022-10-18T08:10:25.209Z,59
2022-10-18T08:11:25.196Z,60
2022-10-18T08:12:25.209Z,63
2022-10-18T08:13:25.210Z,68
2022-10-18T08:14:25.210Z,60
2022-10-18T08:15:25.198Z,64
2022-10-18T08:16:25.211Z,49
2022-10-18T08:17:25.264Z,52
2022-10-18T08:18:25.212Z,55
2022-10-18T08:19:25.199Z,49
2022-10-18T08:20:25.213Z,48
2022-10-18T08:21:25.214Z,47
2022-10-18T08:23:25.201Z,56
2022-10-18T08:24:25.215Z,56
2022-10-18T08:25:25.216Z,55
2022-10-18T08:26:25.202Z,54
2022-10-18T08:27:25.203Z,53
2022-10-18T08:28:25.216Z,52
2022-10-18T08:29:25.217Z,56
2022-10-18T08:30:25.204Z,55
2022-10-18T08:31:25.218Z,55
2022-10-18T08:32:25.218Z,56
2022-10-18T08:33:25.219Z,59
2022-10-18T08:34:25.206Z,61
2022-10-18T08:35:25.220Z,59
2022-10-18T08:36:25.221Z,59
2022-10-18T08:37:25.221Z,59
2022-10-18T08:38:25.208Z,63
2022-10-18T08:39:25.221Z,57
2022-10-18T08:40:25.223Z,54
2022-10-18T08:41:25.209Z,50
2022-10-18T08:42:25.210Z,59
2022-10-18T08:43:25.223Z,53
2022-10-18T08:44:25.224Z,54
2022-10-18T08:45:25.211Z,56
2022-10-18T08:46:25.212Z,59
2022-10-18T08:47:25.225Z,54
2022-10-18T08:48:25.226Z,51
2022-10-18T08:49:25.213Z,52
2022-10-18T08:50:25.227Z,57
2022-10-18T08:51:25.227Z,60
2022-10-18T08:52:25.227Z,47
2022-10-18T08:53:25.228Z,48
2022-10-18T08:54:25.229Z,63
2022-10-18T08:55:25.230Z,50
2022-10-18T08:56:25.230Z,52
2022-10-18T08:57:25.217Z,51
2022-10-18T08:58:25.231Z,55
2022-10-18T08:59:25.232Z,56
2022-10-18T09:00:25.219Z,67
2022-10-18T09:01:25.219Z,63
2022-10-18T09:02:25.233Z,65
2022-10-18T09:03:25.234Z,53
2022-10-18T09:04:25.221Z,57
2022-10-18T09:05:25.221Z,60
2022-10-18T09:06:25.235Z,58
2022-10-18T09:07:25.236Z,54
2022-10-18T09:08:25.223Z,48
2022-10-18T09:09:25.236Z,50
2022-10-18T09:10:25.237Z,56
2022-10-18T09:11:25.238Z,49
2022-10-18T09:12:25.225Z,52
2022-10-18T09:13:25.239Z,55
2022-10-18T09:14:25.240Z,52
2022-10-18T09:15:25.240Z,66
2022-10-18T09:16:25.227Z,60
2022-10-18T09:17:25.241Z,61
2022-10-18T09:18:25.242Z,64
2022-10-18T09:19:25.229Z,64
2022-10-18T09:20:25.230Z,54
2022-10-18T09:21:25.243Z,50
2022-10-18T09:22:25.244Z,55
2022-10-18T09:23:25.231Z,65
2022-10-18T09:24:25.232Z,64
2022-10-18T09:25:25.245Z,52
2022-10-18T09:26:25.246Z,46
2022-10-18T09:27:25.234Z,46
2022-10-18T09:28:25.247Z,49
2022-10-18T09:29:25.248Z,47
2022-10-18T09:30:25.248Z,58
2022-10-18T09:31:25.236Z,54
2022-10-18T09:32:25.250Z,62
2022-10-18T09:33:25.251Z,58
2022-10-18T09:34:25.251Z,54
2022-10-18T09:35:25.238Z,47
2022-10-18T09:36:25.252Z,46
2022-10-18T09:37:25.253Z,52
2022-10-18T09:38:25.240Z,59
2022-10-18T09:39:25.241Z,55
2022-10-18T09:40:25.254Z,49
2022-10-18T09:41:25.255Z,63
2022-10-18T09:42:25.242Z,59
2022-10-18T09:43:25.243Z,65
2022-10-18T09:44:25.256Z,66
2022-10-18T09:45:25.257Z,62
2022-10-18T09:46:25.244Z,68
2022-10-18T09:47:25.258Z,60
2022-10-18T09:48:25.259Z,64
2022-10-18T09:49:25.259Z,66
2022-10-18T09:50:25.247Z,65
2022-10-18T09:51:25.260Z,63
2022-10-18T09:52:25.262Z,65
2022-10-18T09:53:25.262Z,61
2022-10-18T09:54:25.249Z,61
2022-10-18T09:55:25.263Z,53
2022-10-18T09:56:25.264Z,58
2022-10-18T09:57:25.251Z,53
2022-10-18T09:58:25.251Z,63
2022-10-18T09:59:25.265Z,82
2022-10-18T10:00:25.266Z,85
2022-10-18T10:01:25.253Z,85
2022-10-18T10:02:25.308Z,72
2022-10-18T10:03:25.267Z,71
2022-10-18T10:04:25.309Z,77
2022-10-18T10:05:25.255Z,75
2022-10-18T10:06:25.269Z,90
2022-10-18T10:07:25.270Z,71
2022-10-18T10:08:25.270Z,72
2022-10-18T10:09:25.258Z,73
2022-10-18T10:10:25.272Z,76
2022-10-18T10:11:25.273Z,73
2022-10-18T10:12:25.273Z,85
2022-10-18T10:13:25.260Z,93
2022-10-18T10:14:25.274Z,83
2022-10-18T10:15:25.275Z,94
2022-10-18T10:16:25.262Z,98
2022-10-18T10:17:25.262Z,95
2022-10-18T10:18:25.276Z,77
2022-10-18T10:19:25.277Z,75
2022-10-18T10:20:25.264Z,75
2022-10-18T10:21:25.265Z,76
2022-10-18T10:22:25.278Z,65
2022-10-18T10:23:25.279Z,76
2022-10-18T10:24:25.266Z,73
2022-10-18T10:25:25.280Z,75
2022-10-18T10:26:25.281Z,76
2022-10-18T10:27:25.281Z,69
2022-10-18T10:28:25.269Z,80
2022-10-18T10:29:25.282Z,81
2022-10-18T10:30:25.283Z,86
2022-10-18T10:31:25.284Z,81
2022-10-18T10:32:25.271Z,96
2022-10-18T10:33:25.285Z,96
2022-10-18T10:34:25.286Z,95
2022-10-18T10:35:25.273Z,93
2022-10-18T10:36:25.273Z,92
2022-10-18T10:37:25.287Z,86
2022-10-18T10:38:25.288Z,89
2022-10-18T10:39:25.275Z,85
2022-10-18T10:40:25.315Z,97
2022-10-18T10:41:25.289Z,81
2022-10-18T10:42:25.289Z,72
2022-10-18T10:43:25.277Z,88
2022-10-18T10:44:25.290Z,91
2022-10-18T10:45:25.291Z,102
2022-10-18T10:46:25.291Z,90
2022-10-18T10:47:25.279Z,89
2022-10-18T10:48:25.293Z,91
2022-10-18T10:49:25.294Z,95
2022-10-18T10:50:25.294Z,98
2022-10-18T10:51:25.281Z,92
2022-10-18T10:52:25.359Z,81
2022-10-18T10:53:25.296Z,80
2022-10-18T10:54:25.283Z,77
2022-10-18T10:55:25.283Z,83
2022-10-18T10:56:25.297Z,80
2022-10-18T10:57:25.298Z,85
2022-10-18T10:58:25.285Z,91
2022-10-18T10:59:25.298Z,95
2022-10-18T11:00:25.299Z,82
2022-10-18T11:01:25.299Z,81
2022-10-18T11:02:25.287Z,94
2022-10-18T11:03:25.301Z,76
2022-10-18T11:04:25.301Z,86
2022-10-18T11:05:25.302Z,81
2022-10-18T11:06:25.289Z,80
2022-10-18T11:07:25.303Z,81
2022-10-18T11:08:25.304Z,78
2022-10-18T11:09:25.303Z,77
2022-10-18T11:10:25.291Z,82
2022-10-18T11:11:25.305Z,77
2022-10-18T11:12:25.306Z,95
2022-10-18T11:13:25.292Z,98
2022-10-18T11:14:25.293Z,105
2022-10-18T11:15:25.307Z,104
2022-10-18T11:16:25.308Z,94
2022-10-18T11:17:25.295Z,83
2022-10-18T11:18:25.359Z,82
2022-10-18T11:19:25.309Z,76
2022-10-18T11:20:25.309Z,75
2022-10-18T11:21:25.297Z,79
2022-10-18T11:22:25.310Z,93
2022-10-18T11:23:25.311Z,74
2022-10-18T11:24:25.311Z,82
2022-10-18T11:25:25.312Z,87
2022-10-18T11:26:25.312Z,98
2022-10-18T11:27:25.314Z,95
2022-10-18T11:28:25.314Z,89
2022-10-18T11:29:25.301Z,80
2022-10-18T11:30:25.315Z,93
2022-10-18T11:31:25.316Z,95
2022-10-18T11:32:25.303Z,101
2022-10-18T11:33:25.303Z,91
2022-10-18T11:34:25.317Z,90
2022-10-18T11:35:25.318Z,83
2022-10-18T11:36:25.305Z,98
2022-10-18T11:37:25.305Z,93
2022-10-18T11:38:25.319Z,97
2022-10-18T11:39:25.319Z,91
2022-10-18T11:40:25.307Z,101
2022-10-18T11:41:25.321Z,101
2022-10-18T11:42:25.321Z,94
2022-10-18T11:43:25.322Z,108
2022-10-18T11:44:25.309Z,101
2022-10-18T11:45:25.323Z,102
2022-10-18T11:46:25.324Z,108
2022-10-18T11:47:25.324Z,101
2022-10-18T11:48:25.311Z,94
2022-10-18T11:49:25.389Z,89
2022-10-18T11:50:25.326Z,76
2022-10-18T11:51:25.313Z,75
2022-10-18T11:52:25.313Z,75
2022-10-18T11:53:25.327Z,76
2022-10-18T11:54:25.328Z,72
2022-10-18T11:55:25.315Z,72
2022-10-18T11:56:25.329Z,71
2022-10-18T11:57:25.329Z,72
2022-10-18T11:58:25.330Z,71
2022-10-18T11:59:25.317Z,64
2022-10-18T12:00:25.331Z,71
2022-10-18T12:01:25.377Z,71
2022-10-18T12:02:25.332Z,64
2022-10-18T12:03:30.638Z,61
2022-10-18T12:04:25.333Z,62
2022-10-18T12:05:25.334Z,65
2022-10-18T12:06:25.334Z,68
2022-10-18T12:07:25.322Z,67
2022-10-18T12:09:25.337Z,66
2022-10-18T12:10:25.323Z,60
2022-10-18T12:11:25.324Z,58
2022-10-18T12:12:25.338Z,59
2022-10-18T12:13:25.339Z,63
2022-10-18T12:14:25.326Z,66
2022-10-18T12:15:25.326Z,81
2022-10-18T12:16:25.340Z,74
2022-10-18T12:17:25.341Z,73
2022-10-18T12:18:25.328Z,69
2022-10-18T12:19:25.342Z,70
2022-10-18T12:20:25.342Z,75
2022-10-18T12:21:25.343Z,68
2022-10-18T12:22:25.331Z,70
2022-10-18T12:23:25.344Z,59
2022-10-18T12:24:25.345Z,53
2022-10-18T12:25:25.345Z,62
2022-10-18T12:26:25.333Z,75
2022-10-18T12:27:25.347Z,75
2022-10-18T12:28:25.348Z,75
2022-10-18T12:29:25.335Z,67
2022-10-18T12:30:25.335Z,69
2022-10-18T12:31:25.349Z,65
2022-10-18T12:32:25.350Z,62
2022-10-18T12:33:25.337Z,55
2022-10-18T12:34:25.377Z,60
2022-10-18T12:35:25.351Z,68
2022-10-18T12:36:25.352Z,71
2022-10-18T12:37:25.339Z,65
2022-10-18T12:38:25.353Z,73
2022-10-18T12:39:25.353Z,85
2022-10-18T12:40:25.354Z,75
2022-10-18T12:41:25.341Z,71
2022-10-18T12:42:25.355Z,64
2022-10-18T12:43:25.356Z,64
2022-10-18T12:44:25.356Z,67
2022-10-18T12:45:25.343Z,70
2022-10-18T12:46:25.357Z,70
2022-10-18T12:47:25.358Z,65
2022-10-18T12:48:25.345Z,62
2022-10-18T12:49:25.346Z,68
2022-10-18T12:50:25.359Z,54
2022-10-18T12:51:25.361Z,56
2022-10-18T12:52:25.347Z,52
2022-10-18T12:53:25.361Z,62
2022-10-18T12:54:25.362Z,59
2022-10-18T12:55:25.362Z,61
2022-10-18T12:56:25.349Z,54
2022-10-18T12:57:25.363Z,56
2022-10-18T12:58:25.369Z,55
2022-10-18T12:59:25.364Z,59
2022-10-18T13:00:25.351Z,59
2022-10-18T13:01:25.365Z,58
2022-10-18T13:02:25.366Z,59
2022-10-18T13:03:28.399Z,61
2022-10-18T13:04:25.353Z,56
2022-10-18T13:05:25.367Z,64
2022-10-18T13:06:25.368Z,65
2022-10-18T13:07:25.355Z,65
2022-10-18T13:08:25.355Z,68
2022-10-18T13:09:25.369Z,69
2022-10-18T13:10:25.370Z,74
2022-10-18T13:11:25.357Z,83
2022-10-18T13:12:25.357Z,76
2022-10-18T13:13:25.371Z,76
2022-10-18T13:14:25.372Z,71
2022-10-18T13:15:25.359Z,84
2022-10-18T13:16:25.373Z,71
2022-10-18T13:17:25.373Z,59
2022-10-18T13:18:25.374Z,65
2022-10-18T13:19:25.374Z,62
2022-10-18T13:20:25.375Z,59
2022-10-18T13:21:25.376Z,66
2022-10-18T13:22:25.376Z,62
2022-10-18T13:23:25.363Z,64
2022-10-18T13:24:25.377Z,73
2022-10-18T13:25:25.378Z,75
2022-10-18T13:26:25.365Z,76
2022-10-18T13:27:25.365Z,80
2022-10-18T13:28:25.379Z,75
2022-10-18T13:29:25.380Z,67
2022-10-18T13:30:25.367Z,71
2022-10-18T13:31:25.367Z,59
2022-10-18T13:32:25.381Z,59
2022-10-18T13:33:25.381Z,73
2022-10-18T13:34:25.369Z,74
2022-10-18T13:35:25.383Z,71
2022-10-18T13:36:25.383Z,60
2022-10-18T13:37:25.384Z,53
2022-10-18T13:38:25.371Z,56
2022-10-18T13:39:25.385Z,53
2022-10-18T13:40:25.386Z,63
2022-10-18T13:41:25.386Z,69
2022-10-18T13:42:25.373Z,71
2022-10-18T13:43:25.451Z,70
2022-10-18T13:44:25.388Z,73
2022-10-18T13:45:25.374Z,81
2022-10-18T13:46:25.375Z,85
2022-10-18T13:47:25.389Z,76
2022-10-18T13:48:25.390Z,85
2022-10-18T13:49:25.376Z,82
2022-10-18T13:50:25.391Z,91
2022-10-18T13:51:25.390Z,78
2022-10-18T13:52:25.391Z,71
2022-10-18T13:53:25.378Z,79
2022-10-18T13:54:25.392Z,78
2022-10-18T13:55:25.392Z,76
2022-10-18T13:56:25.393Z,79
2022-10-18T13:57:25.380Z,85
2022-10-18T13:58:25.394Z,87
2022-10-18T13:59:25.395Z,76
2022-10-18T14:00:25.395Z,84
2022-10-18T14:01:25.382Z,84
2022-10-18T14:02:25.446Z,75
2022-10-18T14:03:25.397Z,73
2022-10-18T14:04:25.384Z,76
2022-10-18T14:05:25.384Z,80
2022-10-18T14:06:25.398Z,81
2022-10-18T14:07:25.399Z,72
2022-10-18T14:08:25.386Z,75
2022-10-18T14:09:25.386Z,80
2022-10-18T14:10:25.400Z,69
2022-10-18T14:11:25.401Z,65
2022-10-18T14:12:25.388Z,64
2022-10-18T14:13:25.402Z,69
2022-10-18T14:14:25.402Z,67
2022-10-18T14:15:25.403Z,71
2022-10-18T14:16:25.390Z,59
2022-10-18T14:17:25.404Z,68
2022-10-18T14:18:25.450Z,81
2022-10-18T14:19:25.405Z,74
2022-10-18T14:20:25.392Z,65
2022-10-18T14:21:25.406Z,69